sensor_id;sensor_type;location;lat;lon;timestamp;temperature;humidity
41644;DHT22;44236;48.098;11.582;2023-07-22T05:34:15;22.90;55.10
41644;DHT22;44236;48.098;11.582;2023-07-22T05:36:41;22.90;55.50
41644;DHT22;44236;48.098;11.582;2023-07-22T05:39:07;22.90;55.70
41644;DHT22;44236;48.098;11.582;2023-07-22T05:41:33;22.90;55.80
41644;DHT22;44236;48.098;11.582;2023-07-22T05:43:59;22.90;55.50
41644;DHT22;44236;48.098;11.582;2023-07-22T05:46:24;23.00;55.60
41644;DHT22;44236;48.098;11.582;2023-07-22T05:48:50;22.90;55.90
41644;DHT22;44236;48.098;11.582;2023-07-22T05:51:16;23.00;55.30
41644;DHT22;44236;48.098;11.582;2023-07-22T05:53:42;23.00;54.70
41644;DHT22;44236;48.098;11.582;2023-07-22T05:56:08;23.00;55.90
41644;DHT22;44236;48.098;11.582;2023-07-22T05:58:34;23.00;55.40
41644;DHT22;44236;48.098;11.582;2023-07-22T06:00:59;23.00;55.10
41644;DHT22;44236;48.098;11.582;2023-07-22T06:03:25;23.00;55.10
41644;DHT22;44236;48.098;11.582;2023-07-22T06:05:51;23.00;55.30
41644;DHT22;44236;48.098;11.582;2023-07-22T06:08:16;23.00;55.90
41644;DHT22;44236;48.098;11.582;2023-07-22T06:10:42;23.10;56.20
41644;DHT22;44236;48.098;11.582;2023-07-22T06:13:07;23.10;55.80
41644;DHT22;44236;48.098;11.582;2023-07-22T06:15:33;23.10;56.20
41644;DHT22;44236;48.098;11.582;2023-07-22T06:18:00;23.20;54.60
41644;DHT22;44236;48.098;11.582;2023-07-22T06:20:26;23.20;54.60
41644;DHT22;44236;48.098;11.582;2023-07-22T06:22:51;23.20;54.60
41644;DHT22;44236;48.098;11.582;2023-07-22T06:25:17;23.30;54.40
41644;DHT22;44236;48.098;11.582;2023-07-22T06:27:43;23.30;54.50
41644;DHT22;44236;48.098;11.582;2023-07-22T06:30:09;23.30;54.50
41644;DHT22;44236;48.098;11.582;2023-07-22T06:32:37;23.40;54.50
41644;DHT22;44236;48.098;11.582;2023-07-22T06:35:02;23.40;54.30
41644;DHT22;44236;48.098;11.582;2023-07-22T06:37:28;23.40;54.50
41644;DHT22;44236;48.098;11.582;2023-07-22T06:39:54;23.50;54.30
41644;DHT22;44236;48.098;11.582;2023-07-22T06:42:19;23.40;54.40
41644;DHT22;44236;48.098;11.582;2023-07-22T06:44:45;23.50;56.00
41644;DHT22;44236;48.098;11.582;2023-07-22T06:47:10;23.40;54.80
41644;DHT22;44236;48.098;11.582;2023-07-22T06:49:36;23.20;54.40
41644;DHT22;44236;48.098;11.582;2023-07-22T06:52:02;23.10;54.30
41644;DHT22;44236;48.098;11.582;2023-07-22T06:54:28;22.90;54.50
41644;DHT22;44236;48.098;11.582;2023-07-22T06:56:53;22.90;54.60
41644;DHT22;44236;48.098;11.582;2023-07-22T06:59:19;22.80;55.00
41644;DHT22;44236;48.098;11.582;2023-07-22T07:01:45;22.80;55.20
41644;DHT22;44236;48.098;11.582;2023-07-22T07:04:10;22.90;54.90
41644;DHT22;44236;48.098;11.582;2023-07-22T07:06:36;22.90;54.90
41644;DHT22;44236;48.098;11.582;2023-07-22T07:09:04;23.00;54.80
41644;DHT22;44236;48.098;11.582;2023-07-22T07:11:31;23.00;54.40
41644;DHT22;44236;48.098;11.582;2023-07-22T07:13:56;23.10;53.70
41644;DHT22;44236;48.098;11.582;2023-07-22T07:16:24;23.10;53.00
41644;DHT22;44236;48.098;11.582;2023-07-22T07:18:51;23.00;52.60
41644;DHT22;44236;48.098;11.582;2023-07-22T07:21:17;23.00;53.10
41644;DHT22;44236;48.098;11.582;2023-07-22T07:23:44;22.90;52.80
41644;DHT22;44236;48.098;11.582;2023-07-22T07:26:10;22.80;52.70
41644;DHT22;44236;48.098;11.582;2023-07-22T07:28:35;22.90;53.20
41644;DHT22;44236;48.098;11.582;2023-07-22T07:31:01;22.90;53.40
41644;DHT22;44236;48.098;11.582;2023-07-22T07:33:26;22.90;53.20
41644;DHT22;44236;48.098;11.582;2023-07-22T07:35:52;22.90;53.20
41644;DHT22;44236;48.098;11.582;2023-07-22T07:38:18;22.90;52.70
41644;DHT22;44236;48.098;11.582;2023-07-22T07:40:43;22.90;52.20
41644;DHT22;44236;48.098;11.582;2023-07-22T07:43:09;22.90;52.60
41644;DHT22;44236;48.098;11.582;2023-07-22T07:45:38;22.90;53.00
41644;DHT22;44236;48.098;11.582;2023-07-22T07:48:05;23.00;53.00
41644;DHT22;44236;48.098;11.582;2023-07-22T07:50:32;23.10;52.70
41644;DHT22;44236;48.098;11.582;2023-07-22T07:52:57;23.20;52.50
41644;DHT22;44236;48.098;11.582;2023-07-22T07:55:23;23.20;51.50
41644;DHT22;44236;48.098;11.582;2023-07-22T07:57:48;23.30;52.20
41644;DHT22;44236;48.098;11.582;2023-07-22T08:00:14;23.30;52.00
41644;DHT22;44236;48.098;11.582;2023-07-22T08:02:40;23.30;52.20
41644;DHT22;44236;48.098;11.582;2023-07-22T08:05:05;23.50;52.30
41644;DHT22;44236;48.098;11.582;2023-07-22T08:07:31;23.50;51.50
41644;DHT22;44236;48.098;11.582;2023-07-22T08:09:57;23.60;51.80
41644;DHT22;44236;48.098;11.582;2023-07-22T08:12:23;23.60;51.50
41644;DHT22;44236;48.098;11.582;2023-07-22T08:14:49;23.70;52.10
41644;DHT22;44236;48.098;11.582;2023-07-22T08:17:15;23.80;51.90
41644;DHT22;44236;48.098;11.582;2023-07-22T08:19:40;23.80;51.40
41644;DHT22;44236;48.098;11.582;2023-07-22T08:22:06;23.90;51.60
41644;DHT22;44236;48.098;11.582;2023-07-22T08:24:32;23.80;51.60
41644;DHT22;44236;48.098;11.582;2023-07-22T08:26:58;23.80;52.10
41644;DHT22;44236;48.098;11.582;2023-07-22T08:29:24;23.70;51.80
41644;DHT22;44236;48.098;11.582;2023-07-22T08:31:50;23.70;51.70
41644;DHT22;44236;48.098;11.582;2023-07-22T08:34:16;23.60;52.10
41644;DHT22;44236;48.098;11.582;2023-07-22T08:36:42;23.60;52.20
41644;DHT22;44236;48.098;11.582;2023-07-22T08:39:07;23.60;52.10
41644;DHT22;44236;48.098;11.582;2023-07-22T08:41:33;23.60;52.10
41644;DHT22;44236;48.098;11.582;2023-07-22T08:44:00;23.60;51.60
41644;DHT22;44236;48.098;11.582;2023-07-22T08:46:33;23.60;52.10
41644;DHT22;44236;48.098;11.582;2023-07-22T08:48:59;23.60;51.60
41644;DHT22;44236;48.098;11.582;2023-07-22T08:51:26;23.60;52.30
41644;DHT22;44236;48.098;11.582;2023-07-22T08:53:56;23.60;51.70
41644;DHT22;44236;48.098;11.582;2023-07-22T08:56:25;23.60;51.60
41644;DHT22;44236;48.098;11.582;2023-07-22T08:58:55;23.60;51.10
41644;DHT22;44236;48.098;11.582;2023-07-22T09:01:21;23.60;51.10
41644;DHT22;44236;48.098;11.582;2023-07-22T09:03:49;23.50;51.40
41644;DHT22;44236;48.098;11.582;2023-07-22T09:06:18;23.60;52.00
41644;DHT22;44236;48.098;11.582;2023-07-22T09:08:45;23.60;51.80
41644;DHT22;44236;48.098;11.582;2023-07-22T09:11:11;23.60;51.70
41644;DHT22;44236;48.098;11.582;2023-07-22T09:13:38;23.70;51.60
41644;DHT22;44236;48.098;11.582;2023-07-22T09:16:06;23.60;50.40
41644;DHT22;44236;48.098;11.582;2023-07-22T09:18:34;23.60;51.10
41644;DHT22;44236;48.098;11.582;2023-07-22T09:21:00;23.60;49.80
41644;DHT22;44236;48.098;11.582;2023-07-22T09:23:36;23.60;50.50
41644;DHT22;44236;48.098;11.582;2023-07-22T09:26:10;23.60;49.60
41644;DHT22;44236;48.098;11.582;2023-07-22T09:28:56;23.60;49.10
41644;DHT22;44236;48.098;11.582;2023-07-22T09:31:23;23.60;48.80
41644;DHT22;44236;48.098;11.582;2023-07-22T09:33:49;23.60;49.80
41644;DHT22;44236;48.098;11.582;2023-07-22T09:36:16;23.60;50.60
41644;DHT22;44236;48.098;11.582;2023-07-22T09:38:41;23.60;48.50
41644;DHT22;44236;48.098;11.582;2023-07-22T09:41:07;23.60;45.20
41644;DHT22;44236;48.098;11.582;2023-07-22T09:43:39;23.60;47.30
41644;DHT22;44236;48.098;11.582;2023-07-22T09:46:09;23.60;49.30
41644;DHT22;44236;48.098;11.582;2023-07-22T09:48:43;23.60;50.40
41644;DHT22;44236;48.098;11.582;2023-07-22T09:51:13;23.70;49.60
41644;DHT22;44236;48.098;11.582;2023-07-22T09:53:47;23.70;51.10
41644;DHT22;44236;48.098;11.582;2023-07-22T09:56:13;23.70;50.50
41644;DHT22;44236;48.098;11.582;2023-07-22T09:58:40;23.70;50.50
41644;DHT22;44236;48.098;11.582;2023-07-22T10:01:07;23.70;50.00
41644;DHT22;44236;48.098;11.582;2023-07-22T10:03:33;23.70;49.90
41644;DHT22;44236;48.098;11.582;2023-07-22T10:06:03;23.70;49.90
41644;DHT22;44236;48.098;11.582;2023-07-22T10:08:30;23.70;49.40
41644;DHT22;44236;48.098;11.582;2023-07-22T10:11:00;23.70;49.50
41644;DHT22;44236;48.098;11.582;2023-07-22T10:13:27;23.80;49.30
41644;DHT22;44236;48.098;11.582;2023-07-22T10:15:53;23.80;49.60
41644;DHT22;44236;48.098;11.582;2023-07-22T10:18:21;23.80;49.70
41644;DHT22;44236;48.098;11.582;2023-07-22T10:20:48;23.80;49.80
41644;DHT22;44236;48.098;11.582;2023-07-22T10:23:15;23.80;50.30
41644;DHT22;44236;48.098;11.582;2023-07-22T10:25:42;23.80;50.40
41644;DHT22;44236;48.098;11.582;2023-07-22T10:28:08;23.80;50.60
41644;DHT22;44236;48.098;11.582;2023-07-22T10:30:35;23.80;50.50
41644;DHT22;44236;48.098;11.582;2023-07-22T10:33:00;23.80;50.70
41644;DHT22;44236;48.098;11.582;2023-07-22T10:38:11;23.80;50.70
41644;DHT22;44236;48.098;11.582;2023-07-22T10:40:47;23.80;50.80
41644;DHT22;44236;48.098;11.582;2023-07-22T10:43:18;23.90;50.80
41644;DHT22;44236;48.098;11.582;2023-07-22T10:45:50;23.90;50.70
41644;DHT22;44236;48.098;11.582;2023-07-22T10:48:17;23.90;50.30
41644;DHT22;44236;48.098;11.582;2023-07-22T10:50:45;23.90;50.20
41644;DHT22;44236;48.098;11.582;2023-07-22T10:56:06;24.00;49.40
41644;DHT22;44236;48.098;11.582;2023-07-22T11:04:11;24.00;48.10
41644;DHT22;44236;48.098;11.582;2023-07-22T11:14:25;24.10;45.50
41644;DHT22;44236;48.098;11.582;2023-07-22T11:16:52;24.10;47.30
41644;DHT22;44236;48.098;11.582;2023-07-22T11:19:22;24.10;48.50
41644;DHT22;44236;48.098;11.582;2023-07-22T11:21:50;24.20;49.00
41644;DHT22;44236;48.098;11.582;2023-07-22T11:24:16;24.30;48.80
41644;DHT22;44236;48.098;11.582;2023-07-22T11:26:42;24.40;49.00
41644;DHT22;44236;48.098;11.582;2023-07-22T11:29:09;24.40;49.00
41644;DHT22;44236;48.098;11.582;2023-07-22T11:31:36;24.40;49.10
41644;DHT22;44236;48.098;11.582;2023-07-22T11:34:05;24.50;48.80
41644;DHT22;44236;48.098;11.582;2023-07-22T11:36:31;24.50;48.90
41644;DHT22;44236;48.098;11.582;2023-07-22T11:39:08;24.60;48.80
41644;DHT22;44236;48.098;11.582;2023-07-22T11:41:34;24.60;48.70
41644;DHT22;44236;48.098;11.582;2023-07-22T11:44:02;24.60;48.70
41644;DHT22;44236;48.098;11.582;2023-07-22T11:46:30;24.70;48.60
41644;DHT22;44236;48.098;11.582;2023-07-22T11:48:56;24.70;49.00
41644;DHT22;44236;48.098;11.582;2023-07-22T11:51:23;24.70;48.40
41644;DHT22;44236;48.098;11.582;2023-07-22T11:53:51;24.80;48.40
41644;DHT22;44236;48.098;11.582;2023-07-22T11:56:27;24.80;48.30
41644;DHT22;44236;48.098;11.582;2023-07-22T11:58:56;24.90;48.70
41644;DHT22;44236;48.098;11.582;2023-07-22T12:01:23;24.90;48.30
41644;DHT22;44236;48.098;11.582;2023-07-22T12:03:54;24.90;46.80
41644;DHT22;44236;48.098;11.582;2023-07-22T12:06:20;24.80;47.00
41644;DHT22;44236;48.098;11.582;2023-07-22T12:08:47;24.80;47.40
41644;DHT22;44236;48.098;11.582;2023-07-22T12:11:17;25.00;46.00
41644;DHT22;44236;48.098;11.582;2023-07-22T12:13:43;25.00;46.70
41644;DHT22;44236;48.098;11.582;2023-07-22T12:16:12;25.00;46.60
41644;DHT22;44236;48.098;11.582;2023-07-22T12:18:46;25.00;45.80
41644;DHT22;44236;48.098;11.582;2023-07-22T12:21:12;25.00;45.20
41644;DHT22;44236;48.098;11.582;2023-07-22T12:23:38;24.90;45.00
41644;DHT22;44236;48.098;11.582;2023-07-22T12:26:07;24.90;44.70
41644;DHT22;44236;48.098;11.582;2023-07-22T12:28:32;24.90;44.90
41644;DHT22;44236;48.098;11.582;2023-07-22T12:30:58;24.90;44.80
41644;DHT22;44236;48.098;11.582;2023-07-22T12:33:24;24.90;44.30
41644;DHT22;44236;48.098;11.582;2023-07-22T12:35:50;24.90;44.50
41644;DHT22;44236;48.098;11.582;2023-07-22T12:38:16;24.90;44.60
41644;DHT22;44236;48.098;11.582;2023-07-22T12:40:42;24.90;45.00
41644;DHT22;44236;48.098;11.582;2023-07-22T12:43:08;24.90;44.50
41644;DHT22;44236;48.098;11.582;2023-07-22T12:45:33;24.90;44.50
41644;DHT22;44236;48.098;11.582;2023-07-22T12:47:59;24.90;44.60
41644;DHT22;44236;48.098;11.582;2023-07-22T12:50:25;25.00;44.40
41644;DHT22;44236;48.098;11.582;2023-07-22T12:52:50;24.90;43.80
41644;DHT22;44236;48.098;11.582;2023-07-22T12:55:16;24.90;44.50
41644;DHT22;44236;48.098;11.582;2023-07-22T12:57:41;25.00;44.00
41644;DHT22;44236;48.098;11.582;2023-07-22T13:00:07;25.00;44.10
41644;DHT22;44236;48.098;11.582;2023-07-22T13:02:37;25.00;44.30
41644;DHT22;44236;48.098;11.582;2023-07-22T13:05:02;24.90;44.80
41644;DHT22;44236;48.098;11.582;2023-07-22T13:07:28;25.00;44.00
41644;DHT22;44236;48.098;11.582;2023-07-22T13:09:54;25.00;44.30
41644;DHT22;44236;48.098;11.582;2023-07-22T13:12:22;25.00;44.60
41644;DHT22;44236;48.098;11.582;2023-07-22T13:14:47;25.10;44.40
41644;DHT22;44236;48.098;11.582;2023-07-22T13:17:13;25.10;44.20
41644;DHT22;44236;48.098;11.582;2023-07-22T13:19:39;25.10;44.30
41644;DHT22;44236;48.098;11.582;2023-07-22T13:22:04;25.00;43.50
41644;DHT22;44236;48.098;11.582;2023-07-22T13:24:30;25.10;43.40
41644;DHT22;44236;48.098;11.582;2023-07-22T13:26:56;25.20;43.60
41644;DHT22;44236;48.098;11.582;2023-07-22T13:29:21;25.10;43.00
41644;DHT22;44236;48.098;11.582;2023-07-22T13:31:47;25.10;43.20
41644;DHT22;44236;48.098;11.582;2023-07-22T13:34:12;25.00;43.40
41644;DHT22;44236;48.098;11.582;2023-07-22T13:36:38;25.10;43.10
41644;DHT22;44236;48.098;11.582;2023-07-22T13:39:03;25.10;43.10
41644;DHT22;44236;48.098;11.582;2023-07-22T13:41:29;25.10;42.60
41644;DHT22;44236;48.098;11.582;2023-07-22T13:43:55;25.10;43.00
41644;DHT22;44236;48.098;11.582;2023-07-22T13:46:20;25.10;42.60
41644;DHT22;44236;48.098;11.582;2023-07-22T13:48:46;25.10;42.90
41644;DHT22;44236;48.098;11.582;2023-07-22T13:51:11;25.10;43.20
41644;DHT22;44236;48.098;11.582;2023-07-22T13:53:37;25.10;43.10
41644;DHT22;44236;48.098;11.582;2023-07-22T13:56:02;25.10;43.40
41644;DHT22;44236;48.098;11.582;2023-07-22T13:58:28;25.20;43.50
41644;DHT22;44236;48.098;11.582;2023-07-22T14:00:54;25.20;43.50
41644;DHT22;44236;48.098;11.582;2023-07-22T14:03:20;25.20;42.90
41644;DHT22;44236;48.098;11.582;2023-07-22T14:05:46;25.20;43.30
41644;DHT22;44236;48.098;11.582;2023-07-22T14:08:12;25.20;43.10
41644;DHT22;44236;48.098;11.582;2023-07-22T14:10:38;25.20;43.00
41644;DHT22;44236;48.098;11.582;2023-07-22T14:13:03;25.20;43.70
41644;DHT22;44236;48.098;11.582;2023-07-22T14:15:29;25.20;42.70
41644;DHT22;44236;48.098;11.582;2023-07-22T14:17:54;25.20;43.30
41644;DHT22;44236;48.098;11.582;2023-07-22T14:20:20;25.20;43.20
41644;DHT22;44236;48.098;11.582;2023-07-22T14:22:46;25.30;43.00
41644;DHT22;44236;48.098;11.582;2023-07-22T14:25:11;25.30;42.90
41644;DHT22;44236;48.098;11.582;2023-07-22T14:27:38;25.30;43.00
41644;DHT22;44236;48.098;11.582;2023-07-22T14:30:05;25.30;43.20
41644;DHT22;44236;48.098;11.582;2023-07-22T14:32:31;25.30;43.00
41644;DHT22;44236;48.098;11.582;2023-07-22T14:34:57;25.30;43.40
41644;DHT22;44236;48.098;11.582;2023-07-22T14:37:22;25.30;43.10
41644;DHT22;44236;48.098;11.582;2023-07-22T14:39:49;25.30;43.10
41644;DHT22;44236;48.098;11.582;2023-07-22T14:42:14;25.30;43.20
41644;DHT22;44236;48.098;11.582;2023-07-22T14:44:40;25.40;42.80
41644;DHT22;44236;48.098;11.582;2023-07-22T14:47:05;25.40;42.60
41644;DHT22;44236;48.098;11.582;2023-07-22T14:49:31;25.40;42.70
41644;DHT22;44236;48.098;11.582;2023-07-22T14:51:57;25.40;42.60
41644;DHT22;44236;48.098;11.582;2023-07-22T14:54:22;25.40;42.30
41644;DHT22;44236;48.098;11.582;2023-07-22T14:56:48;25.40;42.40
41644;DHT22;44236;48.098;11.582;2023-07-22T14:59:15;25.40;42.30
41644;DHT22;44236;48.098;11.582;2023-07-22T15:01:42;25.40;42.20
41644;DHT22;44236;48.098;11.582;2023-07-22T15:04:08;25.40;42.10
41644;DHT22;44236;48.098;11.582;2023-07-22T15:06:34;25.40;42.20
41644;DHT22;44236;48.098;11.582;2023-07-22T15:09:04;25.40;42.40
41644;DHT22;44236;48.098;11.582;2023-07-22T15:11:35;25.40;42.20
41644;DHT22;44236;48.098;11.582;2023-07-22T15:14:05;25.40;42.00
41644;DHT22;44236;48.098;11.582;2023-07-22T15:16:30;25.40;42.10
41644;DHT22;44236;48.098;11.582;2023-07-22T15:18:56;25.40;42.70
41644;DHT22;44236;48.098;11.582;2023-07-22T15:21:22;25.50;42.20
41644;DHT22;44236;48.098;11.582;2023-07-22T15:23:47;25.40;41.40
41644;DHT22;44236;48.098;11.582;2023-07-22T15:26:13;25.40;41.80
41644;DHT22;44236;48.098;11.582;2023-07-22T15:28:39;25.50;41.90
41644;DHT22;44236;48.098;11.582;2023-07-22T15:31:06;25.40;41.10
41644;DHT22;44236;48.098;11.582;2023-07-22T15:33:31;25.50;41.70
41644;DHT22;44236;48.098;11.582;2023-07-22T15:35:58;25.50;41.60
41644;DHT22;44236;48.098;11.582;2023-07-22T15:38:23;25.50;41.50
41644;DHT22;44236;48.098;11.582;2023-07-22T15:40:50;25.50;41.90
41644;DHT22;44236;48.098;11.582;2023-07-22T15:43:16;25.50;42.10
41644;DHT22;44236;48.098;11.582;2023-07-22T15:45:42;25.50;41.70
41644;DHT22;44236;48.098;11.582;2023-07-22T15:48:08;25.50;41.70
41644;DHT22;44236;48.098;11.582;2023-07-22T15:50:33;25.60;42.20
41644;DHT22;44236;48.098;11.582;2023-07-22T15:52:59;25.50;41.20
41644;DHT22;44236;48.098;11.582;2023-07-22T15:55:24;25.50;41.90
41644;DHT22;44236;48.098;11.582;2023-07-22T15:57:50;25.50;41.90
41644;DHT22;44236;48.098;11.582;2023-07-22T16:00:16;25.50;42.00
41644;DHT22;44236;48.098;11.582;2023-07-22T16:02:42;25.60;41.60
41644;DHT22;44236;48.098;11.582;2023-07-22T16:05:07;25.60;41.80
41644;DHT22;44236;48.098;11.582;2023-07-22T16:07:34;25.50;41.70
41644;DHT22;44236;48.098;11.582;2023-07-22T16:10:00;25.50;41.80
41644;DHT22;44236;48.098;11.582;2023-07-22T16:12:28;25.50;41.80
41644;DHT22;44236;48.098;11.582;2023-07-22T16:14:55;25.60;41.70
41644;DHT22;44236;48.098;11.582;2023-07-22T16:17:21;25.60;41.50
41644;DHT22;44236;48.098;11.582;2023-07-22T16:19:46;25.60;40.30
41644;DHT22;44236;48.098;11.582;2023-07-22T16:22:12;25.50;41.40
41644;DHT22;44236;48.098;11.582;2023-07-22T16:24:38;25.60;41.00
41644;DHT22;44236;48.098;11.582;2023-07-22T16:27:04;25.60;41.60
41644;DHT22;44236;48.098;11.582;2023-07-22T16:29:29;25.60;41.50
41644;DHT22;44236;48.098;11.582;2023-07-22T16:31:55;25.60;41.00
41644;DHT22;44236;48.098;11.582;2023-07-22T16:34:21;25.70;41.50
41644;DHT22;44236;48.098;11.582;2023-07-22T16:36:47;25.70;40.30
41644;DHT22;44236;48.098;11.582;2023-07-22T16:39:13;25.60;40.20
41644;DHT22;44236;48.098;11.582;2023-07-22T16:41:39;25.60;41.10
41644;DHT22;44236;48.098;11.582;2023-07-22T16:44:05;25.60;41.60
41644;DHT22;44236;48.098;11.582;2023-07-22T16:46:31;25.60;40.30
41644;DHT22;44236;48.098;11.582;2023-07-22T16:48:57;25.60;41.10
41644;DHT22;44236;48.098;11.582;2023-07-22T16:51:25;25.70;40.70
41644;DHT22;44236;48.098;11.582;2023-07-22T16:53:52;25.70;41.40
41644;DHT22;44236;48.098;11.582;2023-07-22T16:56:18;25.70;41.10
41644;DHT22;44236;48.098;11.582;2023-07-22T16:58:44;25.70;41.10
41644;DHT22;44236;48.098;11.582;2023-07-22T17:01:09;25.70;41.20
41644;DHT22;44236;48.098;11.582;2023-07-22T17:03:36;25.70;41.00
41644;DHT22;44236;48.098;11.582;2023-07-22T17:06:02;25.70;40.50
41644;DHT22;44236;48.098;11.582;2023-07-22T17:08:27;25.70;41.00
41644;DHT22;44236;48.098;11.582;2023-07-22T17:10:53;25.70;40.90
41644;DHT22;44236;48.098;11.582;2023-07-22T17:13:19;25.70;41.30
41644;DHT22;44236;48.098;11.582;2023-07-22T17:15:44;25.70;41.20
41644;DHT22;44236;48.098;11.582;2023-07-22T17:18:10;25.70;41.50
41644;DHT22;44236;48.098;11.582;2023-07-22T17:20:36;25.70;40.70
41644;DHT22;44236;48.098;11.582;2023-07-22T17:23:02;25.70;41.00
41644;DHT22;44236;48.098;11.582;2023-07-22T17:25:27;25.70;41.40
41644;DHT22;44236;48.098;11.582;2023-07-22T17:27:53;25.70;41.30
41644;DHT22;44236;48.098;11.582;2023-07-22T17:30:19;25.70;41.10
41644;DHT22;44236;48.098;11.582;2023-07-22T17:32:45;25.70;41.50
41644;DHT22;44236;48.098;11.582;2023-07-22T17:35:15;25.70;41.50
41644;DHT22;44236;48.098;11.582;2023-07-22T17:37:40;25.80;41.50
41644;DHT22;44236;48.098;11.582;2023-07-22T17:40:06;25.70;41.30
41644;DHT22;44236;48.098;11.582;2023-07-22T17:42:33;25.80;41.50
41644;DHT22;44236;48.098;11.582;2023-07-22T17:44:58;25.80;41.50
41644;DHT22;44236;48.098;11.582;2023-07-22T17:47:24;25.80;41.10
41644;DHT22;44236;48.098;11.582;2023-07-22T17:49:49;25.70;41.40
41644;DHT22;44236;48.098;11.582;2023-07-22T17:52:15;25.80;41.50
41644;DHT22;44236;48.098;11.582;2023-07-22T17:54:41;25.70;41.50
41644;DHT22;44236;48.098;11.582;2023-07-22T17:57:06;25.80;41.60
41644;DHT22;44236;48.098;11.582;2023-07-22T17:59:32;25.70;41.40
41644;DHT22;44236;48.098;11.582;2023-07-22T18:01:58;25.80;41.30
41644;DHT22;44236;48.098;11.582;2023-07-22T18:04:24;25.80;40.60
41644;DHT22;44236;48.098;11.582;2023-07-22T18:06:50;25.80;38.80
41644;DHT22;44236;48.098;11.582;2023-07-22T18:09:15;25.80;39.70
41644;DHT22;44236;48.098;11.582;2023-07-22T18:11:41;25.80;38.30
41644;DHT22;44236;48.098;11.582;2023-07-22T18:14:11;25.70;37.70
41644;DHT22;44236;48.098;11.582;2023-07-22T18:16:36;25.70;37.40
41644;DHT22;44236;48.098;11.582;2023-07-22T18:19:02;25.60;37.70
41644;DHT22;44236;48.098;11.582;2023-07-22T18:21:27;25.60;38.50
41644;DHT22;44236;48.098;11.582;2023-07-22T18:23:53;25.50;37.60
41644;DHT22;44236;48.098;11.582;2023-07-22T18:26:18;25.50;38.00
41644;DHT22;44236;48.098;11.582;2023-07-22T18:28:44;25.40;37.40
41644;DHT22;44236;48.098;11.582;2023-07-22T18:31:10;25.40;37.20
41644;DHT22;44236;48.098;11.582;2023-07-22T18:33:35;25.40;37.40
41644;DHT22;44236;48.098;11.582;2023-07-22T18:36:01;25.40;37.60
41644;DHT22;44236;48.098;11.582;2023-07-22T18:38:28;25.30;37.40
41644;DHT22;44236;48.098;11.582;2023-07-22T18:40:54;25.30;37.40
41644;DHT22;44236;48.098;11.582;2023-07-22T18:43:20;25.30;37.50
41644;DHT22;44236;48.098;11.582;2023-07-22T18:45:46;25.30;38.30
41644;DHT22;44236;48.098;11.582;2023-07-22T18:48:11;25.20;38.00
41644;DHT22;44236;48.098;11.582;2023-07-22T18:50:37;25.20;38.30
41644;DHT22;44236;48.098;11.582;2023-07-22T18:53:03;25.20;39.90
41644;DHT22;44236;48.098;11.582;2023-07-22T18:55:29;25.10;39.50
41644;DHT22;44236;48.098;11.582;2023-07-22T18:57:55;25.00;38.90
41644;DHT22;44236;48.098;11.582;2023-07-22T19:00:20;25.00;39.30
41644;DHT22;44236;48.098;11.582;2023-07-22T19:02:46;25.00;39.00
41644;DHT22;44236;48.098;11.582;2023-07-22T19:05:12;24.90;40.20
41644;DHT22;44236;48.098;11.582;2023-07-22T19:07:38;24.80;39.40
41644;DHT22;44236;48.098;11.582;2023-07-22T19:10:04;24.80;39.60
41644;DHT22;44236;48.098;11.582;2023-07-22T19:12:30;24.70;39.80
41644;DHT22;44236;48.098;11.582;2023-07-22T19:14:55;24.70;40.10
41644;DHT22;44236;48.098;11.582;2023-07-22T19:17:21;24.60;40.40
41644;DHT22;44236;48.098;11.582;2023-07-22T19:19:47;24.60;40.50
41644;DHT22;44236;48.098;11.582;2023-07-22T19:22:12;24.40;40.80
41644;DHT22;44236;48.098;11.582;2023-07-22T19:24:38;24.30;41.00
41644;DHT22;44236;48.098;11.582;2023-07-22T19:27:04;24.20;41.40
41644;DHT22;44236;48.098;11.582;2023-07-22T19:29:30;24.00;41.80
41644;DHT22;44236;48.098;11.582;2023-07-22T19:31:56;23.80;42.20
41644;DHT22;44236;48.098;11.582;2023-07-22T19:34:21;23.80;42.30
41644;DHT22;44236;48.098;11.582;2023-07-22T19:36:47;23.80;42.20
41644;DHT22;44236;48.098;11.582;2023-07-22T19:39:12;23.80;42.20
41644;DHT22;44236;48.098;11.582;2023-07-22T19:41:38;23.80;42.10
41644;DHT22;44236;48.098;11.582;2023-07-22T19:44:04;23.80;42.30
41644;DHT22;44236;48.098;11.582;2023-07-22T19:46:29;23.80;42.40
41644;DHT22;44236;48.098;11.582;2023-07-22T19:48:55;23.80;42.30
41644;DHT22;44236;48.098;11.582;2023-07-22T19:51:20;23.70;42.30
41644;DHT22;44236;48.098;11.582;2023-07-22T19:53:46;23.80;42.30
41644;DHT22;44236;48.098;11.582;2023-07-22T19:56:12;23.70;42.40
41644;DHT22;44236;48.098;11.582;2023-07-22T19:58:38;23.70;42.30
41644;DHT22;44236;48.098;11.582;2023-07-22T20:01:04;23.70;42.30
41644;DHT22;44236;48.098;11.582;2023-07-22T20:03:31;23.70;42.40
41644;DHT22;44236;48.098;11.582;2023-07-22T20:05:57;23.60;42.50
41644;DHT22;44236;48.098;11.582;2023-07-22T20:08:23;23.60;42.50
41644;DHT22;44236;48.098;11.582;2023-07-22T20:10:50;23.60;42.70
41644;DHT22;44236;48.098;11.582;2023-07-22T20:13:16;23.60;42.80
41644;DHT22;44236;48.098;11.582;2023-07-22T20:15:42;23.60;42.80
41644;DHT22;44236;48.098;11.582;2023-07-22T20:18:08;23.70;42.80
41644;DHT22;44236;48.098;11.582;2023-07-22T20:20:33;23.60;42.70
41644;DHT22;44236;48.098;11.582;2023-07-22T20:22:59;23.60;43.00
41644;DHT22;44236;48.098;11.582;2023-07-22T20:25:25;23.60;43.20
41644;DHT22;44236;48.098;11.582;2023-07-22T20:27:52;23.60;43.20
41644;DHT22;44236;48.098;11.582;2023-07-22T20:30:18;23.60;43.30
41644;DHT22;44236;48.098;11.582;2023-07-22T20:32:45;23.50;43.30
41644;DHT22;44236;48.098;11.582;2023-07-22T20:35:11;23.50;43.40
41644;DHT22;44236;48.098;11.582;2023-07-22T20:37:39;23.50;43.40
41644;DHT22;44236;48.098;11.582;2023-07-22T20:40:05;23.50;43.40
41644;DHT22;44236;48.098;11.582;2023-07-22T20:42:31;23.50;43.50
41644;DHT22;44236;48.098;11.582;2023-07-22T20:44:56;23.50;43.60
41644;DHT22;44236;48.098;11.582;2023-07-22T20:47:22;23.40;43.60
41644;DHT22;44236;48.098;11.582;2023-07-22T20:49:47;23.40;43.70
41644;DHT22;44236;48.098;11.582;2023-07-22T20:52:13;23.40;43.70
41644;DHT22;44236;48.098;11.582;2023-07-22T20:54:38;23.30;43.60
41644;DHT22;44236;48.098;11.582;2023-07-22T20:57:04;23.40;43.80
41644;DHT22;44236;48.098;11.582;2023-07-22T20:59:30;23.40;44.00
41644;DHT22;44236;48.098;11.582;2023-07-22T21:01:55;23.40;43.90